DUZEAR1 KAQX-KBNL
Flight info
| Callsign | DUZEAR1 |
|---|---|
| Flight time | 0h 16m |
| Altitude | 4000 |
| Route | KAQX/35 N0238F040 DCT ICUTE DCT STUGE DCT ENANE DCT KBNL/17 |
| Aircraft | PC12/L-SDE2FGIRWY/SB1 |
Departure
| Time | 2026-05-05 21:02 |
|---|---|
| Airport | Allendale County Airport (KAQX) |
Arrival
| Time | 2026-05-05 21:18 |
|---|---|
| Airport | Barnwell Regional Airport (KBNL) |
| Time | Latitude | Longitude | Altitude | Speed | Heading |
|---|---|---|---|---|---|
| 2026-05-05 20:46 | 32.99331 | -81.27108 | 164 ft | 0 kts | 341° |
| 2026-05-05 21:00 | 32.99336 | -81.27109 | 164 ft | 5 kts | 348° |
| 2026-05-05 21:00 | 32.99345 | -81.27065 | 164 ft | 9 kts | 115° |
| 2026-05-05 21:01 | 32.99369 | -81.26975 | 164 ft | 13 kts | 4° |
| 2026-05-05 21:01 | 32.99559 | -81.27042 | 165 ft | 58 kts | 342° |
| 2026-05-05 21:01 | 33.00143 | -81.27269 | 270 ft | 107 kts | 339° |
| 2026-05-05 21:01 | 33.00640 | -81.28038 | 630 ft | 139 kts | 296° |
| 2026-05-05 21:02 | 33.01077 | -81.29139 | 1354 ft | 142 kts | 295° |
| 2026-05-05 21:02 | 33.01473 | -81.30130 | 2410 ft | 130 kts | 297° |
| 2026-05-05 21:02 | 33.01850 | -81.31164 | 3164 ft | 145 kts | 296° |
| 2026-05-05 21:02 | 33.02258 | -81.32337 | 3768 ft | 158 kts | 295° |
| 2026-05-05 21:03 | 33.02674 | -81.33522 | 4003 ft | 170 kts | 295° |
| 2026-05-05 21:03 | 33.03151 | -81.34873 | 4009 ft | 164 kts | 292° |
| 2026-05-05 21:03 | 33.03612 | -81.36189 | 4006 ft | 167 kts | 291° |
| 2026-05-05 21:03 | 33.04074 | -81.37491 | 4003 ft | 170 kts | 290° |
| 2026-05-05 21:04 | 33.04523 | -81.38771 | 4003 ft | 178 kts | 289° |
| 2026-05-05 21:04 | 33.05206 | -81.40174 | 4012 ft | 215 kts | 311° |
| 2026-05-05 21:04 | 33.06479 | -81.41253 | 4010 ft | 232 kts | 329° |
| 2026-05-05 21:04 | 33.07902 | -81.42209 | 4012 ft | 236 kts | 329° |
| 2026-05-05 21:05 | 33.09324 | -81.43185 | 4010 ft | 236 kts | 328° |
| 2026-05-05 21:05 | 33.10732 | -81.44178 | 4007 ft | 235 kts | 328° |
| 2026-05-05 21:05 | 33.12139 | -81.45168 | 3996 ft | 234 kts | 328° |
| 2026-05-05 21:05 | 33.13547 | -81.46153 | 4015 ft | 236 kts | 328° |
| 2026-05-05 21:06 | 33.14962 | -81.47145 | 4003 ft | 237 kts | 328° |
| 2026-05-05 21:06 | 33.16398 | -81.48135 | 3999 ft | 237 kts | 332° |
| 2026-05-05 21:06 | 33.16888 | -81.48391 | 3991 ft | 237 kts | 339° |
| 2026-05-05 21:06 | 33.18170 | -81.48795 | 3996 ft | 236 kts | 346° |
| 2026-05-05 21:07 | 33.19750 | -81.49247 | 3999 ft | 237 kts | 345° |
| 2026-05-05 21:07 | 33.21351 | -81.49727 | 3998 ft | 237 kts | 345° |
| 2026-05-05 21:07 | 33.22950 | -81.50201 | 4004 ft | 237 kts | 345° |
| 2026-05-05 21:07 | 33.24573 | -81.50682 | 3998 ft | 237 kts | 345° |
| 2026-05-05 21:08 | 33.26146 | -81.51148 | 3991 ft | 230 kts | 345° |
| 2026-05-05 21:08 | 33.27548 | -81.51558 | 3986 ft | 185 kts | 345° |
| 2026-05-05 21:08 | 33.28749 | -81.51917 | 3986 ft | 178 kts | 345° |
| 2026-05-05 21:08 | 33.29952 | -81.52274 | 3984 ft | 175 kts | 345° |
| 2026-05-05 21:09 | 33.31129 | -81.52622 | 3994 ft | 174 kts | 345° |
| 2026-05-05 21:09 | 33.32295 | -81.52967 | 3986 ft | 172 kts | 345° |
| 2026-05-05 21:09 | 33.33457 | -81.53314 | 3993 ft | 172 kts | 345° |
| 2026-05-05 21:09 | 33.34609 | -81.53653 | 3986 ft | 172 kts | 345° |
| 2026-05-05 21:10 | 33.35785 | -81.54005 | 3996 ft | 175 kts | 345° |
| 2026-05-05 21:10 | 33.36967 | -81.54354 | 3997 ft | 176 kts | 344° |
| 2026-05-05 21:10 | 33.38154 | -81.54705 | 3994 ft | 176 kts | 345° |
| 2026-05-05 21:10 | 33.39338 | -81.55053 | 3999 ft | 175 kts | 346° |
| 2026-05-05 21:11 | 33.40544 | -81.55063 | 3996 ft | 174 kts | 12° |
| 2026-05-05 21:11 | 33.41635 | -81.54465 | 3989 ft | 174 kts | 39° |
| 2026-05-05 21:11 | 33.42412 | -81.53397 | 3995 ft | 169 kts | 65° |
| 2026-05-05 21:11 | 33.42831 | -81.52103 | 3996 ft | 166 kts | 76° |
| 2026-05-05 21:12 | 33.43225 | -81.50794 | 4007 ft | 167 kts | 74° |
| 2026-05-05 21:12 | 33.43621 | -81.49491 | 4002 ft | 167 kts | 76° |
| 2026-05-05 21:12 | 33.43765 | -81.48138 | 3996 ft | 163 kts | 101° |
| 2026-05-05 21:12 | 33.43456 | -81.46872 | 3821 ft | 156 kts | 123° |
| 2026-05-05 21:13 | 33.42792 | -81.45877 | 3627 ft | 153 kts | 143° |
| 2026-05-05 21:13 | 33.41900 | -81.45265 | 3429 ft | 148 kts | 162° |
| 2026-05-05 21:13 | 33.40924 | -81.44863 | 3218 ft | 147 kts | 162° |
| 2026-05-05 21:13 | 33.39963 | -81.44447 | 3025 ft | 145 kts | 162° |
| 2026-05-05 21:14 | 33.39012 | -81.44043 | 2836 ft | 146 kts | 162° |
| 2026-05-05 21:14 | 33.38057 | -81.43636 | 2656 ft | 148 kts | 163° |
| 2026-05-05 21:14 | 33.37097 | -81.43231 | 2452 ft | 148 kts | 162° |
| 2026-05-05 21:14 | 33.36133 | -81.42820 | 2281 ft | 147 kts | 163° |
| 2026-05-05 21:15 | 33.35151 | -81.42406 | 2078 ft | 148 kts | 162° |
| 2026-05-05 21:15 | 33.34203 | -81.42001 | 1874 ft | 144 kts | 163° |
| 2026-05-05 21:15 | 33.33284 | -81.41607 | 1684 ft | 129 kts | 163° |
| 2026-05-05 21:15 | 33.32527 | -81.41285 | 1503 ft | 112 kts | 163° |
| 2026-05-05 21:16 | 33.31801 | -81.40980 | 1369 ft | 107 kts | 163° |
| 2026-05-05 21:16 | 33.31058 | -81.40669 | 1247 ft | 119 kts | 163° |
| 2026-05-05 21:16 | 33.30274 | -81.40335 | 1076 ft | 117 kts | 163° |
| 2026-05-05 21:16 | 33.29568 | -81.40036 | 925 ft | 99 kts | 164° |
| 2026-05-05 21:17 | 33.28948 | -81.39771 | 780 ft | 93 kts | 163° |
| 2026-05-05 21:17 | 33.28336 | -81.39512 | 662 ft | 93 kts | 162° |
| 2026-05-05 21:17 | 33.27744 | -81.39259 | 541 ft | 89 kts | 162° |
| 2026-05-05 21:17 | 33.27159 | -81.39013 | 422 ft | 88 kts | 161° |
| 2026-05-05 21:18 | 33.26588 | -81.38771 | 310 ft | 84 kts | 160° |
| 2026-05-05 21:18 | 33.26081 | -81.38560 | 251 ft | 68 kts | 160° |
| 2026-05-05 21:18 | 33.25934 | -81.38497 | 250 ft | 2 kts | 162° |
| 2026-05-05 21:18 | 33.25931 | -81.38417 | 250 ft | 11 kts | 75° |
| 2026-05-05 21:19 | 33.25957 | -81.38304 | 250 ft | 10 kts | 75° |
| 2026-05-05 21:19 | 33.25978 | -81.38211 | 251 ft | 7 kts | 74° |
| 2026-05-05 21:19 | 33.25996 | -81.38185 | 251 ft | 7 kts | 22° |
| 2026-05-05 21:19 | 33.26032 | -81.38153 | 251 ft | 8 kts | 3° |
| 2026-05-05 21:20 | 33.26023 | -81.38135 | 251 ft | 0 kts | 244° |
| 2026-05-05 21:20 | 33.26021 | -81.38144 | 251 ft | 0 kts | 255° |